createdAt,value
2022-09-10T00:00:13.792Z,10.52
2022-09-10T00:01:13.807Z,10.63
2022-09-10T00:02:13.842Z,10.51
2022-09-10T00:03:13.913Z,10.55
2022-09-10T00:04:13.842Z,10.52
2022-09-10T00:05:13.856Z,10.52
2022-09-10T00:06:13.863Z,10.51
2022-09-10T00:07:13.901Z,10.29
2022-09-10T00:08:13.890Z,10.29
2022-09-10T00:09:13.905Z,10.25
2022-09-10T00:10:13.923Z,10.32
2022-09-10T00:11:13.930Z,10.25
2022-09-10T00:12:13.942Z,10.23
2022-09-10T00:13:13.952Z,10.20
2022-09-10T00:14:13.968Z,10.11
2022-09-10T00:15:13.977Z,10.18
2022-09-10T00:16:14.059Z,10.08
2022-09-10T00:17:14.004Z,10.05
2022-09-10T00:18:14.016Z,10.09
2022-09-10T00:19:14.025Z,10.08
2022-09-10T00:20:14.038Z,10.04
2022-09-10T00:21:14.057Z,9.99
2022-09-10T00:22:14.064Z,10.01
2022-09-10T00:23:14.111Z,9.91
2022-09-10T00:24:14.094Z,9.79
2022-09-10T00:25:14.104Z,9.83
2022-09-10T00:26:14.116Z,9.79
2022-09-10T00:27:14.126Z,9.78
2022-09-10T00:28:14.141Z,9.74
2022-09-10T00:29:14.153Z,9.72
2022-09-10T00:30:14.168Z,9.83
2022-09-10T00:31:14.189Z,9.91
2022-09-10T00:32:14.191Z,9.83
2022-09-10T00:33:14.206Z,9.81
2022-09-10T00:34:14.211Z,9.75
2022-09-10T00:35:14.225Z,9.83
2022-09-10T00:36:14.244Z,9.72
2022-09-10T00:37:14.250Z,9.78
2022-09-10T00:38:14.260Z,9.81
2022-09-10T00:39:14.405Z,9.83
2022-09-10T00:40:14.296Z,9.86
2022-09-10T00:41:14.306Z,9.84
2022-09-10T00:42:14.315Z,9.81
2022-09-10T00:43:14.327Z,9.86
2022-09-10T00:44:14.335Z,9.78
2022-09-10T00:45:14.446Z,9.72
2022-09-10T00:46:14.358Z,9.74
2022-09-10T00:47:14.370Z,9.56
2022-09-10T00:48:14.383Z,9.57
2022-09-10T00:49:14.400Z,9.58
2022-09-10T00:50:14.410Z,9.56
2022-09-10T00:51:14.420Z,9.47
2022-09-10T00:52:14.435Z,9.38
2022-09-10T00:53:14.442Z,9.21
2022-09-10T00:54:14.457Z,9.17
2022-09-10T00:55:14.493Z,9.15
2022-09-10T00:56:14.478Z,9.17
2022-09-10T00:57:14.496Z,9.18
2022-09-10T00:58:14.505Z,9.26
2022-09-10T00:59:14.515Z,9.32
2022-09-10T01:00:14.528Z,9.38
2022-09-10T01:01:14.608Z,9.36
2022-09-10T01:02:14.590Z,9.51
2022-09-10T01:03:14.561Z,9.51
2022-09-10T01:04:14.582Z,9.66
2022-09-10T01:05:14.592Z,9.64
2022-09-10T01:06:14.597Z,9.57
2022-09-10T01:07:14.618Z,9.66
2022-09-10T01:08:14.631Z,9.69
2022-09-10T01:09:14.637Z,9.69
2022-09-10T01:10:14.647Z,9.71
2022-09-10T01:11:14.694Z,9.76
2022-09-10T01:12:14.674Z,9.69
2022-09-10T01:13:14.685Z,9.71
2022-09-10T01:14:14.692Z,9.71
2022-09-10T01:15:14.711Z,9.79
2022-09-10T01:16:14.779Z,9.86
2022-09-10T01:17:14.734Z,9.89
2022-09-10T01:18:14.844Z,9.96
2022-09-10T01:19:14.752Z,9.91
2022-09-10T01:20:14.765Z,9.99
2022-09-10T01:21:14.784Z,9.91
2022-09-10T01:22:14.803Z,9.96
2022-09-10T01:23:17.725Z,10.01
2022-09-10T01:24:14.816Z,9.99
2022-09-10T01:25:14.832Z,9.97
2022-09-10T01:26:14.841Z,9.87
2022-09-10T01:27:14.877Z,9.81
2022-09-10T01:28:14.872Z,9.66
2022-09-10T01:29:14.885Z,9.65
2022-09-10T01:30:14.900Z,9.47
2022-09-10T01:31:14.974Z,9.56
2022-09-10T01:32:14.916Z,9.47
2022-09-10T01:33:14.940Z,9.54
2022-09-10T01:34:14.935Z,9.53
2022-09-10T01:35:14.953Z,9.58
2022-09-10T01:36:14.958Z,9.53
2022-09-10T01:37:14.971Z,9.50
2022-09-10T01:38:14.988Z,9.40
2022-09-10T01:39:14.995Z,9.39
2022-09-10T01:40:15.012Z,9.36
2022-09-10T01:41:15.018Z,9.39
2022-09-10T01:42:15.034Z,9.43
2022-09-10T01:43:15.170Z,9.43
2022-09-10T01:44:15.055Z,9.53
2022-09-10T01:45:15.070Z,9.54
2022-09-10T01:46:15.081Z,9.53
2022-09-10T01:47:15.095Z,9.61
2022-09-10T01:48:15.104Z,9.66
2022-09-10T01:49:15.117Z,9.72
2022-09-10T01:50:15.134Z,9.79
2022-09-10T01:51:15.139Z,9.75
2022-09-10T01:52:15.153Z,9.90
2022-09-10T01:53:15.166Z,9.69
2022-09-10T01:54:15.178Z,9.56
2022-09-10T01:55:15.191Z,9.54
2022-09-10T01:56:15.202Z,9.20
2022-09-10T01:57:15.214Z,8.99
2022-09-10T01:58:15.228Z,8.77
2022-09-10T01:59:15.260Z,8.76
2022-09-10T02:00:15.255Z,8.71
2022-09-10T02:01:15.348Z,8.74
2022-09-10T02:02:15.311Z,8.76
2022-09-10T02:03:15.286Z,8.65
2022-09-10T02:04:15.300Z,8.73
2022-09-10T02:05:15.316Z,8.68
2022-09-10T02:06:15.318Z,8.76
2022-09-10T02:07:15.332Z,8.94
2022-09-10T02:08:15.345Z,8.79
2022-09-10T02:09:15.358Z,8.94
2022-09-10T02:10:15.374Z,9.04
2022-09-10T02:11:15.384Z,9.02
2022-09-10T02:12:15.393Z,9.15
2022-09-10T02:13:15.406Z,9.13
2022-09-10T02:14:15.415Z,9.17
2022-09-10T02:15:15.452Z,9.29
2022-09-10T02:16:15.517Z,9.15
2022-09-10T02:17:15.451Z,9.23
2022-09-10T02:18:15.503Z,9.26
2022-09-10T02:19:15.472Z,9.28
2022-09-10T02:20:15.489Z,9.20
2022-09-10T02:21:15.503Z,9.33
2022-09-10T02:22:15.522Z,9.39
2022-09-10T02:23:15.523Z,9.38
2022-09-10T02:24:15.536Z,9.32
2022-09-10T02:25:15.543Z,9.36
2022-09-10T02:26:15.554Z,9.33
2022-09-10T02:27:15.566Z,9.35
2022-09-10T02:28:15.576Z,9.32
2022-09-10T02:29:15.606Z,9.40
2022-09-10T02:30:15.605Z,9.40
2022-09-10T02:31:15.676Z,9.40
2022-09-10T02:32:15.627Z,9.40
2022-09-10T02:33:15.640Z,9.40
2022-09-10T02:34:15.651Z,9.39
2022-09-10T02:35:15.662Z,9.40
2022-09-10T02:36:15.679Z,9.51
2022-09-10T02:37:15.694Z,9.57
2022-09-10T02:38:15.698Z,9.50
2022-09-10T02:39:15.712Z,9.50
2022-09-10T02:40:15.724Z,9.58
2022-09-10T02:41:15.732Z,9.53
2022-09-10T02:42:15.747Z,9.64
2022-09-10T02:43:15.755Z,9.57
2022-09-10T02:44:15.770Z,9.60
2022-09-10T02:45:15.781Z,9.64
2022-09-10T02:46:15.794Z,9.76
2022-09-10T02:47:15.829Z,9.79
2022-09-10T02:48:15.818Z,9.81
2022-09-10T02:49:15.831Z,9.76
2022-09-10T02:50:15.841Z,9.78
2022-09-10T02:51:15.954Z,9.79
2022-09-10T02:52:15.864Z,9.75
2022-09-10T02:53:15.875Z,9.75
2022-09-10T02:54:15.889Z,9.64
2022-09-10T02:55:15.901Z,9.61
2022-09-10T02:56:15.913Z,9.60
2022-09-10T02:57:15.923Z,9.58
2022-09-10T02:58:15.937Z,9.60
2022-09-10T02:59:15.951Z,9.65
2022-09-10T03:00:15.966Z,9.64
2022-09-10T03:01:16.073Z,9.65
2022-09-10T03:02:16.044Z,9.65
2022-09-10T03:03:16.033Z,9.64
2022-09-10T03:04:16.009Z,9.66
2022-09-10T03:05:16.084Z,9.58
2022-09-10T03:06:16.033Z,9.58
2022-09-10T03:07:16.050Z,9.58
2022-09-10T03:08:16.058Z,9.53
2022-09-10T03:09:16.072Z,9.43
2022-09-10T03:10:16.084Z,9.40
2022-09-10T03:11:16.089Z,9.47
2022-09-10T03:12:16.105Z,9.32
2022-09-10T03:13:16.117Z,9.33
2022-09-10T03:14:16.129Z,9.39
2022-09-10T03:15:16.141Z,9.43
2022-09-10T03:16:16.211Z,9.46
2022-09-10T03:17:16.164Z,9.43
2022-09-10T03:18:16.173Z,9.43
2022-09-10T03:19:16.244Z,9.46
2022-09-10T03:20:16.200Z,9.38
2022-09-10T03:21:16.207Z,9.35
2022-09-10T03:22:16.220Z,9.26
2022-09-10T03:23:16.237Z,9.26
2022-09-10T03:24:16.248Z,9.21
2022-09-10T03:25:16.261Z,9.21
2022-09-10T03:26:16.266Z,9.17
2022-09-10T03:27:16.287Z,9.14
2022-09-10T03:28:16.293Z,9.13
2022-09-10T03:29:16.304Z,9.14
2022-09-10T03:30:16.320Z,9.15
2022-09-10T03:31:16.335Z,9.13
2022-09-10T03:32:16.342Z,9.17
2022-09-10T03:33:16.359Z,9.26
2022-09-10T03:34:16.366Z,9.17
2022-09-10T03:35:16.397Z,9.24
2022-09-10T03:36:16.394Z,9.21
2022-09-10T03:37:16.405Z,9.31
2022-09-10T03:38:16.407Z,9.26
2022-09-10T03:39:16.429Z,9.28
2022-09-10T03:40:16.433Z,9.20
2022-09-10T03:41:16.444Z,9.28
2022-09-10T03:42:16.451Z,9.36
2022-09-10T03:43:16.466Z,9.38
2022-09-10T03:44:16.477Z,9.36
2022-09-10T03:45:16.494Z,9.33
2022-09-10T03:46:16.503Z,9.29
2022-09-10T03:47:16.517Z,9.24
2022-09-10T03:48:16.530Z,9.20
2022-09-10T03:49:16.540Z,9.15
2022-09-10T03:50:16.549Z,9.15
2022-09-10T03:51:16.584Z,9.08
2022-09-10T03:52:16.582Z,9.10
2022-09-10T03:53:16.586Z,9.01
2022-09-10T03:54:16.696Z,8.96
2022-09-10T03:55:16.608Z,8.83
2022-09-10T03:56:16.621Z,8.96
2022-09-10T03:57:16.631Z,8.94
2022-09-10T03:58:16.645Z,8.92
2022-09-10T03:59:16.651Z,8.95
2022-09-10T04:00:16.664Z,8.83
2022-09-10T04:01:16.724Z,8.83
2022-09-10T04:02:16.704Z,8.83
2022-09-10T04:03:16.703Z,8.84
2022-09-10T04:04:16.713Z,8.77
2022-09-10T04:05:16.721Z,8.80
2022-09-10T04:06:16.735Z,8.81
2022-09-10T04:07:16.767Z,8.81
2022-09-10T04:08:16.760Z,8.89
2022-09-10T04:09:16.765Z,8.92
2022-09-10T04:10:16.779Z,8.81
2022-09-10T04:11:16.790Z,8.86
2022-09-10T04:12:16.797Z,8.84
2022-09-10T04:13:16.815Z,8.79
2022-09-10T04:14:16.825Z,8.79
2022-09-10T04:15:16.835Z,8.81
2022-09-10T04:16:16.899Z,8.84
2022-09-10T04:17:16.856Z,8.94
2022-09-10T04:18:16.871Z,8.95
2022-09-10T04:19:16.883Z,8.94
2022-09-10T04:20:16.891Z,8.92
2022-09-10T04:21:16.903Z,8.94
2022-09-10T04:22:16.916Z,8.95
2022-09-10T04:23:16.955Z,8.99
2022-09-10T04:24:16.935Z,8.83
2022-09-10T04:25:16.950Z,8.92
2022-09-10T04:26:16.959Z,8.81
2022-09-10T04:27:16.972Z,8.83
2022-09-10T04:28:16.988Z,8.94
2022-09-10T04:29:16.993Z,8.94
2022-09-10T04:30:17.009Z,8.86
2022-09-10T04:31:17.136Z,8.83
2022-09-10T04:32:17.034Z,8.91
2022-09-10T04:33:17.084Z,8.96
2022-09-10T04:34:17.065Z,8.81
2022-09-10T04:35:17.084Z,8.81
2022-09-10T04:36:17.076Z,8.83
2022-09-10T04:37:19.351Z,8.84
2022-09-10T04:38:17.100Z,8.81
2022-09-10T04:39:17.129Z,8.80
2022-09-10T04:40:17.117Z,8.84
2022-09-10T04:41:17.127Z,8.95
2022-09-10T04:42:17.137Z,8.89
2022-09-10T04:43:17.147Z,8.83
2022-09-10T04:44:17.164Z,8.83
2022-09-10T04:45:17.173Z,8.96
2022-09-10T04:46:17.185Z,8.91
2022-09-10T04:47:17.198Z,8.96
2022-09-10T04:48:17.213Z,8.86
2022-09-10T04:49:17.220Z,8.86
2022-09-10T04:50:17.231Z,8.83
2022-09-10T04:51:18.134Z,8.96
2022-09-10T04:52:17.252Z,8.81
2022-09-10T04:53:17.264Z,8.83
2022-09-10T04:54:17.275Z,8.92
2022-09-10T04:55:17.325Z,8.81
2022-09-10T04:56:17.297Z,8.76
2022-09-10T04:57:17.308Z,8.80
2022-09-10T04:58:17.413Z,8.79
2022-09-10T04:59:17.333Z,8.76
2022-09-10T05:00:17.346Z,8.74
2022-09-10T05:01:17.432Z,8.71
2022-09-10T05:02:17.402Z,8.68
2022-09-10T05:03:17.371Z,8.63
2022-09-10T05:04:17.384Z,8.65
2022-09-10T05:05:17.392Z,8.66
2022-09-10T05:06:17.400Z,8.68
2022-09-10T05:07:17.418Z,8.70
2022-09-10T05:08:17.430Z,8.70
2022-09-10T05:09:17.473Z,8.70
2022-09-10T05:10:17.450Z,8.68
2022-09-10T05:11:17.555Z,8.63
2022-09-10T05:12:17.468Z,8.59
2022-09-10T05:13:17.479Z,8.59
2022-09-10T05:14:17.543Z,8.56
2022-09-10T05:15:17.499Z,8.52
2022-09-10T05:16:17.570Z,8.58
2022-09-10T05:17:17.626Z,8.66
2022-09-10T05:18:17.538Z,8.59
2022-09-10T05:19:17.550Z,8.56
2022-09-10T05:20:17.559Z,8.62
2022-09-10T05:21:17.667Z,8.68
2022-09-10T05:22:17.602Z,8.68
2022-09-10T05:23:17.591Z,8.76
2022-09-10T05:24:17.603Z,8.77
2022-09-10T05:25:17.617Z,8.71
2022-09-10T05:26:17.625Z,8.74
2022-09-10T05:27:17.729Z,8.71
2022-09-10T05:28:17.734Z,8.79
2022-09-10T05:29:17.652Z,8.80
2022-09-10T05:30:17.666Z,8.80
2022-09-10T05:31:17.744Z,8.87
2022-09-10T05:32:17.712Z,8.95
2022-09-10T05:33:17.699Z,8.94
2022-09-10T05:34:17.797Z,8.98
2022-09-10T05:35:17.717Z,8.98
2022-09-10T05:36:17.736Z,8.99
2022-09-10T05:37:17.748Z,9.04
2022-09-10T05:38:17.752Z,8.95
2022-09-10T05:39:17.790Z,9.04
2022-09-10T05:40:17.780Z,8.94
2022-09-10T05:41:17.789Z,8.94
2022-09-10T05:42:17.802Z,8.95
2022-09-10T05:43:17.834Z,9.04
2022-09-10T05:44:17.823Z,9.08
2022-09-10T05:45:17.831Z,9.02
2022-09-10T05:46:17.845Z,8.96
2022-09-10T05:47:17.857Z,8.96
2022-09-10T05:48:17.875Z,9.08
2022-09-10T05:49:17.881Z,8.96
2022-09-10T05:50:17.890Z,9.04
2022-09-10T05:51:17.962Z,8.98
2022-09-10T05:52:17.913Z,9.01
2022-09-10T05:53:17.923Z,8.98
2022-09-10T05:54:17.935Z,8.96
2022-09-10T05:55:17.942Z,9.04
2022-09-10T05:56:17.956Z,8.94
2022-09-10T05:57:17.969Z,8.92
2022-09-10T05:58:17.976Z,8.96
2022-09-10T05:59:18.012Z,8.83
2022-09-10T06:00:18.006Z,8.77
2022-09-10T06:01:18.013Z,8.86
2022-09-10T06:02:21.914Z,8.81
2022-09-10T06:03:18.072Z,8.86
2022-09-10T06:04:18.041Z,8.76
2022-09-10T06:05:18.057Z,8.80
2022-09-10T06:06:18.065Z,8.89
2022-09-10T06:07:18.077Z,8.81
2022-09-10T06:08:18.088Z,8.84
2022-09-10T06:09:18.099Z,8.80
2022-09-10T06:10:18.112Z,8.80
2022-09-10T06:11:18.121Z,8.89
2022-09-10T06:12:18.135Z,8.94
2022-09-10T06:13:18.143Z,8.86
2022-09-10T06:14:18.153Z,8.89
2022-09-10T06:15:18.191Z,8.96
2022-09-10T06:16:18.258Z,8.95
2022-09-10T06:17:18.185Z,8.99
2022-09-10T06:18:18.194Z,8.98
2022-09-10T06:19:18.211Z,9.04
2022-09-10T06:20:18.219Z,9.02
2022-09-10T06:21:18.334Z,9.10
2022-09-10T06:22:18.239Z,8.94
2022-09-10T06:23:18.254Z,8.99
2022-09-10T06:24:18.261Z,9.05
2022-09-10T06:25:18.380Z,9.05
2022-09-10T06:26:18.292Z,9.13
2022-09-10T06:27:18.297Z,9.18
2022-09-10T06:28:18.360Z,9.20
2022-09-10T06:29:18.321Z,9.20
2022-09-10T06:30:18.334Z,9.26
2022-09-10T06:31:18.367Z,9.23
2022-09-10T06:32:18.352Z,9.23
2022-09-10T06:33:18.361Z,9.32
2022-09-10T06:34:18.375Z,9.35
2022-09-10T06:35:18.383Z,9.35
2022-09-10T06:36:18.407Z,9.29
2022-09-10T06:37:18.407Z,9.36
2022-09-10T06:38:18.435Z,9.43
2022-09-10T06:39:18.437Z,9.38
2022-09-10T06:40:18.463Z,9.29
2022-09-10T06:41:18.459Z,9.35
2022-09-10T06:42:18.464Z,9.33
2022-09-10T06:43:18.478Z,9.42
2022-09-10T06:44:18.493Z,9.42
2022-09-10T06:45:18.499Z,9.43
2022-09-10T06:46:56.975Z,9.56
2022-09-10T06:48:38.210Z,9.47
2022-09-10T06:49:18.545Z,9.53
2022-09-10T06:50:18.562Z,9.53
2022-09-10T06:51:18.589Z,9.57
2022-09-10T06:52:18.579Z,9.64
2022-09-10T06:53:18.589Z,9.58
2022-09-10T06:54:18.600Z,9.65
2022-09-10T06:55:18.610Z,9.60
2022-09-10T06:56:18.623Z,9.71
2022-09-10T06:57:18.636Z,9.76
2022-09-10T06:58:18.649Z,9.74
2022-09-10T06:59:18.663Z,9.75
2022-09-10T07:00:18.674Z,9.79
2022-09-10T07:01:18.716Z,9.71
2022-09-10T07:02:18.730Z,9.72
2022-09-10T07:03:18.733Z,9.64
2022-09-10T07:04:18.754Z,9.75
2022-09-10T07:05:18.730Z,9.75
2022-09-10T07:06:18.737Z,9.76
2022-09-10T07:07:18.853Z,9.76
2022-09-10T07:08:18.761Z,9.76
2022-09-10T07:09:18.781Z,9.84
2022-09-10T07:10:18.792Z,9.84
2022-09-10T07:11:18.812Z,9.90
2022-09-10T07:12:18.808Z,9.94
2022-09-10T07:13:18.820Z,9.90
2022-09-10T07:14:18.830Z,9.93
2022-09-10T07:15:18.944Z,9.96
2022-09-10T07:16:18.858Z,9.96
2022-09-10T07:17:18.866Z,10.01
2022-09-10T07:18:18.873Z,9.97
2022-09-10T07:19:18.910Z,10.07
2022-09-10T07:20:18.900Z,10.07
2022-09-10T07:21:18.913Z,10.12
2022-09-10T07:22:18.924Z,10.11
2022-09-10T07:23:18.937Z,10.20
2022-09-10T07:24:18.951Z,10.25
2022-09-10T07:25:18.960Z,10.15
2022-09-10T07:26:18.971Z,10.27
2022-09-10T07:27:18.979Z,10.25
2022-09-10T07:28:18.997Z,10.25
2022-09-10T07:29:19.009Z,10.29
2022-09-10T07:30:19.122Z,10.34
2022-09-10T07:31:19.095Z,10.34
2022-09-10T07:32:19.044Z,10.30
2022-09-10T07:33:19.056Z,10.32
2022-09-10T07:34:19.095Z,10.33
2022-09-10T07:35:19.108Z,10.29
2022-09-10T07:36:19.092Z,10.27
2022-09-10T07:37:19.108Z,10.22
2022-09-10T07:38:19.116Z,10.22
2022-09-10T07:39:23.536Z,10.23
2022-09-10T07:40:19.136Z,10.20
2022-09-10T07:41:19.146Z,10.34
2022-09-10T07:42:19.158Z,10.36
2022-09-10T07:43:19.175Z,10.60
2022-09-10T07:44:19.188Z,10.84
2022-09-10T07:45:19.196Z,10.91
2022-09-10T07:46:19.246Z,10.84
2022-09-10T07:47:19.220Z,10.86
2022-09-10T07:48:19.237Z,10.89
2022-09-10T07:49:19.244Z,11.02
2022-09-10T07:50:19.253Z,10.99
2022-09-10T07:51:19.296Z,10.92
2022-09-10T07:52:19.283Z,10.89
2022-09-10T07:53:19.294Z,10.78
2022-09-10T07:54:19.306Z,10.89
2022-09-10T07:55:19.314Z,10.89
2022-09-10T07:56:19.332Z,10.88
2022-09-10T07:57:19.348Z,11.02
2022-09-10T07:58:19.350Z,11.04
2022-09-10T07:59:19.374Z,11.03
2022-09-10T08:00:19.377Z,10.91
2022-09-10T08:01:19.427Z,10.89
2022-09-10T08:02:19.449Z,10.89
2022-09-10T08:03:19.414Z,10.89
2022-09-10T08:04:19.427Z,10.96
2022-09-10T08:05:19.440Z,10.89
2022-09-10T08:06:19.465Z,11.06
2022-09-10T08:07:19.602Z,11.02
2022-09-10T08:08:19.473Z,11.07
2022-09-10T08:09:19.486Z,11.18
2022-09-10T08:10:19.536Z,11.19
2022-09-10T08:11:19.512Z,11.14
2022-09-10T08:12:19.518Z,11.24
2022-09-10T08:13:19.533Z,11.42
2022-09-10T08:14:19.549Z,11.39
2022-09-10T08:15:19.659Z,11.32
2022-09-10T08:16:19.573Z,11.44
2022-09-10T08:17:19.581Z,11.49
2022-09-10T08:18:19.597Z,11.60
2022-09-10T08:19:19.606Z,11.67
2022-09-10T08:20:19.620Z,11.65
2022-09-10T08:21:19.631Z,11.78
2022-09-10T08:22:19.646Z,11.83
2022-09-10T08:23:19.685Z,11.96
2022-09-10T08:24:19.679Z,11.96
2022-09-10T08:25:19.686Z,11.98
2022-09-10T08:26:19.697Z,11.86
2022-09-10T08:27:19.711Z,12.02
2022-09-10T08:28:24.810Z,12.21
2022-09-10T08:29:19.730Z,12.32
2022-09-10T08:30:19.745Z,12.64
2022-09-10T08:31:19.833Z,12.72
2022-09-10T08:32:19.777Z,12.67
2022-09-10T08:33:19.787Z,12.60
2022-09-10T08:34:19.797Z,12.49
2022-09-10T08:35:19.807Z,12.42
2022-09-10T08:36:19.825Z,12.10
2022-09-10T08:37:19.834Z,11.86
2022-09-10T08:38:19.843Z,11.52
2022-09-10T08:39:19.883Z,11.60
2022-09-10T08:40:19.876Z,11.57
2022-09-10T08:41:19.890Z,11.80
2022-09-10T08:42:19.895Z,11.96
2022-09-10T08:43:19.910Z,12.24
2022-09-10T08:44:19.925Z,12.52
2022-09-10T08:45:19.937Z,12.74
2022-09-10T08:46:19.953Z,12.60
2022-09-10T08:47:19.977Z,12.74
2022-09-10T08:48:19.970Z,12.56
2022-09-10T08:49:19.984Z,12.45
2022-09-10T08:50:19.998Z,12.54
2022-09-10T08:51:20.017Z,12.23
2022-09-10T08:52:20.021Z,12.41
2022-09-10T08:53:20.043Z,12.67
2022-09-10T08:54:20.052Z,12.59
2022-09-10T08:55:20.087Z,12.53
2022-09-10T08:56:20.102Z,12.37
2022-09-10T08:57:20.091Z,12.32
2022-09-10T08:58:20.101Z,12.29
2022-09-10T08:59:20.111Z,12.60
2022-09-10T09:00:20.130Z,13.08
2022-09-10T09:01:20.202Z,13.10
2022-09-10T09:02:44.724Z,13.25
2022-09-10T09:03:20.192Z,13.26
2022-09-10T09:04:20.182Z,13.14
2022-09-10T09:05:20.199Z,13.08
2022-09-10T09:06:20.207Z,13.32
2022-09-10T09:07:20.249Z,13.04
2022-09-10T09:08:20.236Z,13.08
2022-09-10T09:09:20.252Z,13.11
2022-09-10T09:10:20.267Z,13.29
2022-09-10T09:11:20.292Z,13.26
2022-09-10T09:12:20.282Z,12.74
2022-09-10T09:13:20.300Z,12.70
2022-09-10T09:14:20.309Z,12.52
2022-09-10T09:15:20.329Z,12.67
2022-09-10T09:16:20.341Z,12.87
2022-09-10T09:17:20.352Z,13.15
2022-09-10T09:18:20.373Z,13.45
2022-09-10T09:19:20.381Z,13.63
2022-09-10T09:20:20.393Z,13.28
2022-09-10T09:21:20.405Z,13.28
2022-09-10T09:22:20.419Z,13.49
2022-09-10T09:23:20.432Z,13.51
2022-09-10T09:24:20.444Z,13.45
2022-09-10T09:25:20.464Z,13.10
2022-09-10T09:26:20.475Z,13.17
2022-09-10T09:27:20.506Z,13.49
2022-09-10T09:28:20.497Z,13.85
2022-09-10T09:29:20.516Z,14.02
2022-09-10T09:30:20.533Z,14.14
2022-09-10T09:31:20.596Z,14.15
2022-09-10T09:32:20.552Z,14.18
2022-09-10T09:33:20.567Z,14.40
2022-09-10T09:34:20.581Z,14.35
2022-09-10T09:35:20.597Z,14.60
2022-09-10T09:36:20.606Z,14.45
2022-09-10T09:37:20.624Z,14.28
2022-09-10T09:38:20.640Z,14.32
2022-09-10T09:39:23.877Z,14.57
2022-09-10T09:40:20.664Z,14.55
2022-09-10T09:41:20.677Z,14.70
2022-09-10T09:42:20.691Z,14.52
2022-09-10T09:43:20.729Z,14.57
2022-09-10T09:44:20.720Z,14.28
2022-09-10T09:45:20.736Z,14.37
2022-09-10T09:46:20.750Z,14.57
2022-09-10T09:47:20.766Z,14.73
2022-09-10T09:48:20.774Z,14.91
2022-09-10T09:49:20.792Z,14.95
2022-09-10T09:50:20.808Z,14.70
2022-09-10T09:51:20.820Z,14.84
2022-09-10T09:52:20.830Z,15.01
2022-09-10T09:53:20.849Z,15.16
2022-09-10T09:54:56.558Z,15.29
2022-09-10T09:55:20.880Z,15.47
2022-09-10T09:56:20.990Z,15.50
2022-09-10T09:57:20.908Z,15.67
2022-09-10T09:58:20.918Z,15.36
2022-09-10T09:59:20.961Z,15.21
2022-09-10T10:00:20.950Z,15.16
2022-09-10T10:01:21.057Z,15.31
2022-09-10T10:02:21.033Z,15.67
2022-09-10T10:03:20.996Z,15.50
2022-09-10T10:04:21.012Z,14.81
2022-09-10T10:05:21.028Z,14.80
2022-09-10T10:06:21.047Z,15.19
2022-09-10T10:07:21.059Z,15.20
2022-09-10T10:08:21.074Z,15.36
2022-09-10T10:09:21.087Z,15.29
2022-09-10T10:10:21.100Z,15.16
2022-09-10T10:11:21.115Z,15.17
2022-09-10T10:12:21.136Z,14.75
2022-09-10T10:13:21.145Z,14.95
2022-09-10T10:14:21.158Z,15.36
2022-09-10T10:15:21.201Z,15.19
2022-09-10T10:16:21.194Z,15.06
2022-09-10T10:17:21.204Z,15.29
2022-09-10T10:18:21.224Z,15.54
2022-09-10T10:19:21.236Z,15.96
2022-09-10T10:20:21.254Z,15.94
2022-09-10T10:21:21.270Z,16.05
2022-09-10T10:22:21.286Z,16.38
2022-09-10T10:23:21.297Z,16.58
2022-09-10T10:24:21.312Z,16.86
2022-09-10T10:25:21.330Z,17.00
2022-09-10T10:26:21.346Z,17.11
2022-09-10T10:27:21.362Z,16.86
2022-09-10T10:28:21.377Z,16.81
2022-09-10T10:29:21.391Z,16.75
2022-09-10T10:30:21.412Z,16.61
2022-09-10T10:31:21.495Z,16.60
2022-09-10T10:32:21.440Z,16.35
2022-09-10T10:33:21.455Z,16.63
2022-09-10T10:34:21.471Z,16.57
2022-09-10T10:35:21.493Z,16.85
2022-09-10T10:36:21.499Z,16.98
2022-09-10T10:37:21.519Z,16.28
2022-09-10T10:38:21.540Z,16.52
2022-09-10T10:39:21.555Z,16.63
2022-09-10T10:40:21.569Z,15.86
2022-09-10T10:41:21.588Z,15.82
2022-09-10T10:42:21.700Z,16.20
2022-09-10T10:43:21.613Z,16.52
2022-09-10T10:44:21.641Z,16.14
2022-09-10T10:45:21.648Z,15.71
2022-09-10T10:46:21.754Z,15.62
2022-09-10T10:47:21.720Z,15.84
2022-09-10T10:48:21.703Z,16.33
2022-09-10T10:49:21.719Z,16.31
2022-09-10T10:50:21.734Z,16.56
2022-09-10T10:51:21.749Z,16.30
2022-09-10T10:52:21.774Z,15.83
2022-09-10T10:53:21.780Z,15.90
2022-09-10T10:54:21.817Z,16.42
2022-09-10T10:55:21.815Z,16.89
2022-09-10T10:56:21.828Z,17.16
2022-09-10T10:57:21.849Z,17.41
2022-09-10T10:58:21.860Z,17.25
2022-09-10T10:59:21.880Z,17.40
2022-09-10T11:00:21.891Z,17.56
2022-09-10T11:01:21.944Z,17.71
2022-09-10T11:02:21.980Z,17.51
2022-09-10T11:03:21.969Z,17.51
2022-09-10T11:04:21.960Z,17.48
2022-09-10T11:05:21.977Z,17.55
2022-09-10T11:06:21.992Z,17.64
2022-09-10T11:07:22.015Z,17.62
2022-09-10T11:08:22.026Z,17.03
2022-09-10T11:09:22.118Z,17.19
2022-09-10T11:10:22.064Z,16.58
2022-09-10T11:11:22.090Z,16.70
2022-09-10T11:12:22.155Z,16.76
2022-09-10T11:13:22.109Z,16.52
2022-09-10T11:14:22.130Z,16.27
2022-09-10T11:15:22.150Z,16.81
2022-09-10T11:16:22.164Z,17.15
2022-09-10T11:17:22.179Z,17.41
2022-09-10T11:18:22.195Z,17.28
2022-09-10T11:19:22.240Z,17.52
2022-09-10T11:20:28.831Z,16.63
2022-09-10T11:21:22.251Z,16.82
2022-09-10T11:22:22.264Z,16.68
2022-09-10T11:23:22.279Z,16.50
2022-09-10T11:24:22.295Z,16.82
2022-09-10T11:25:22.314Z,16.83
2022-09-10T11:26:22.330Z,16.34
2022-09-10T11:27:22.353Z,15.80
2022-09-10T11:28:22.360Z,17.01
2022-09-10T11:29:22.385Z,17.03
2022-09-10T11:30:22.395Z,16.98
2022-09-10T11:31:22.458Z,17.31
2022-09-10T11:32:22.433Z,17.74
2022-09-10T11:33:22.451Z,18.17
2022-09-10T11:34:22.463Z,18.20
2022-09-10T11:35:22.507Z,18.39
2022-09-10T11:36:22.496Z,18.25
2022-09-10T11:37:22.517Z,17.52
2022-09-10T11:38:22.541Z,17.08
2022-09-10T11:39:22.548Z,16.89
2022-09-10T11:40:22.573Z,17.19
2022-09-10T11:41:22.582Z,16.89
2022-09-10T11:42:22.669Z,16.73
2022-09-10T11:43:22.615Z,16.56
2022-09-10T11:44:22.637Z,17.26
2022-09-10T11:45:22.648Z,17.62
2022-09-10T11:46:22.713Z,17.15
2022-09-10T11:47:22.681Z,17.56
2022-09-10T11:48:22.707Z,17.77
2022-09-10T11:49:22.714Z,17.79
2022-09-10T11:50:22.731Z,18.15
2022-09-10T11:51:22.772Z,18.20
2022-09-10T11:52:22.765Z,18.51
2022-09-10T11:53:22.781Z,17.99
2022-09-10T11:54:22.800Z,17.28
2022-09-10T11:55:22.817Z,17.63
2022-09-10T11:56:22.832Z,17.89
2022-09-10T11:57:22.859Z,18.02
2022-09-10T11:58:22.869Z,18.29
2022-09-10T11:59:22.888Z,18.36
2022-09-10T12:00:22.903Z,17.84
2022-09-10T12:01:22.928Z,18.26
2022-09-10T12:02:22.967Z,17.92
2022-09-10T12:03:22.991Z,17.87
2022-09-10T12:04:22.973Z,17.96
2022-09-10T12:05:22.995Z,17.74
2022-09-10T12:06:23.007Z,17.68
2022-09-10T12:07:23.055Z,17.89
2022-09-10T12:08:23.042Z,17.95
2022-09-10T12:09:23.060Z,17.46
2022-09-10T12:10:23.078Z,17.75
2022-09-10T12:11:23.099Z,17.97
2022-09-10T12:12:23.114Z,18.23
2022-09-10T12:13:23.131Z,18.54
2022-09-10T12:14:23.149Z,18.92
2022-09-10T12:15:23.164Z,18.44
2022-09-10T12:16:23.213Z,18.48
2022-09-10T12:17:23.206Z,18.69
2022-09-10T12:18:23.223Z,18.17
2022-09-10T12:19:23.249Z,18.15
2022-09-10T12:20:23.268Z,17.87
2022-09-10T12:21:23.290Z,17.90
2022-09-10T12:22:23.317Z,18.37
2022-09-10T12:23:23.334Z,18.80
2022-09-10T12:24:23.325Z,18.33
2022-09-10T12:25:23.345Z,18.35
2022-09-10T12:26:23.364Z,18.78
2022-09-10T12:27:23.389Z,18.55
2022-09-10T12:28:23.400Z,18.42
2022-09-10T12:29:23.421Z,18.69
2022-09-10T12:30:23.434Z,18.29
2022-09-10T12:31:23.496Z,17.93
2022-09-10T12:32:23.473Z,18.29
2022-09-10T12:33:23.489Z,18.26
2022-09-10T12:34:23.507Z,18.20
2022-09-10T12:35:23.526Z,18.20
2022-09-10T12:36:23.542Z,17.97
2022-09-10T12:37:23.571Z,17.55
2022-09-10T12:38:23.576Z,17.26
2022-09-10T12:39:23.638Z,17.92
2022-09-10T12:40:23.634Z,18.03
2022-09-10T12:41:23.630Z,18.67
2022-09-10T12:42:23.650Z,19.11
2022-09-10T12:43:23.668Z,18.75
2022-09-10T12:44:23.685Z,18.58
2022-09-10T12:45:23.717Z,18.50
2022-09-10T12:46:23.788Z,17.95
2022-09-10T12:47:23.756Z,17.41
2022-09-10T12:48:26.943Z,17.41
2022-09-10T12:49:23.778Z,17.58
2022-09-10T12:50:23.796Z,17.58
2022-09-10T12:51:23.819Z,17.79
2022-09-10T12:52:23.830Z,18.17
2022-09-10T12:53:23.849Z,18.45
2022-09-10T12:54:23.866Z,18.60
2022-09-10T12:55:23.906Z,18.82
2022-09-10T12:56:23.904Z,19.19
2022-09-10T12:57:23.921Z,19.32
2022-09-10T12:58:23.942Z,19.02
2022-09-10T12:59:23.959Z,18.48
2022-09-10T13:00:23.975Z,18.67
2022-09-10T13:01:24.129Z,18.72
2022-09-10T13:02:24.123Z,18.72
2022-09-10T13:03:24.029Z,19.13
2022-09-10T13:04:24.046Z,19.50
2022-09-10T13:05:24.066Z,19.40
2022-09-10T13:06:24.084Z,18.72
2022-09-10T13:07:24.104Z,18.95